^^
Station Historical Data
Daily Summary for April 12, 2017 Units:  Both    English   Metric
« Previous Day
Next Day »
Daily Weekly Monthly Yearly Custom
  High: Low: Average:
Temperature: 75.2 °F /  24 °C 52.5 °F /  11.4 °C 61 °F /  16.1 °C
Dew Point: 60.3 °F /  15.7 °C 50.9 °F /  10.5 °C 54.9 °F /  12.7 °C
Humidity: 94% 58% 81%
Wind Speed: 17.0mph /  27.4km/h - 1.4mph /  2.3km/h
Wind Gust: 18.0mph /  29km/h - -
Wind- - ESE
Pressure: 29.88 in /  1011.7 hPa 29.74 in /  1007 hPa -
Precipitation: 0.61 in /  15.49 mm    
Historical Graphs
 
 
Tabular Data for April 12, 2017
Time Temperature Dew Point Pressure Wind Wind Speed Wind Gust Humidity Rainfall Rate (Hourly) solar Conditions
00:02 61.2 °F /  16.2 °C 52.5 °F /  11.4 °C 29.85in /  1010.7hPa Calm   1.0mph /  1.6km/h 73% 0.00in /  0mm 0.0 W/m2
00:08 61.0 °F /  16.1 °C 52.7 °F /  11.5 °C 29.85in /  1010.7hPa SSE 2.9mph /  4.7km/h 4.0mph /  6.4km/h 74% 0.00in /  0mm 0.0 W/m2
00:17 60.6 °F /  15.9 °C 51.6 °F /  10.9 °C 29.84in /  1010.4hPa SE 0.9mph /  1.4km/h 4.0mph /  6.4km/h 72% 0.00in /  0mm 0.0 W/m2
00:24 60.8 °F /  16 °C 51.3 °F /  10.7 °C 29.85in /  1010.7hPa SSE 0.9mph /  1.4km/h 3.0mph /  4.8km/h 71% 0.00in /  0mm 0.0 W/m2
00:29 61.0 °F /  16.1 °C 51.1 °F /  10.6 °C 29.85in /  1010.7hPa SE 2.0mph /  3.2km/h 5.0mph /  8km/h 70% 0.00in /  0mm 0.0 W/m2
00:35 61.0 °F /  16.1 °C 51.1 °F /  10.6 °C 29.84in /  1010.4hPa Calm   1.0mph /  1.6km/h 70% 0.00in /  0mm 0.0 W/m2
00:41 61.0 °F /  16.1 °C 51.4 °F /  10.8 °C 29.84in /  1010.4hPa Calm   1.0mph /  1.6km/h 71% 0.00in /  0mm 0.0 W/m2
00:47 61.0 °F /  16.1 °C 52.3 °F /  11.3 °C 29.84in /  1010.4hPa Calm     73% 0.00in /  0mm 0.0 W/m2
00:53 60.4 °F /  15.8 °C 51.8 °F /  11 °C 29.84in /  1010.4hPa Calm   1.0mph /  1.6km/h 73% 0.00in /  0mm 0.0 W/m2
01:00 60.3 °F /  15.7 °C 51.6 °F /  10.9 °C 29.83in /  1010hPa Calm     73% 0.00in /  0mm 0.0 W/m2
01:06 60.1 °F /  15.6 °C 51.8 °F /  11 °C 29.83in /  1010hPa SSE 2.0mph /  3.2km/h 3.0mph /  4.8km/h 74% 0.00in /  0mm 0.0 W/m2
01:12 59.7 °F /  15.4 °C 51.1 °F /  10.6 °C 29.83in /  1010hPa Calm   2.0mph /  3.2km/h 73% 0.00in /  0mm 0.0 W/m2
01:18 59.7 °F /  15.4 °C 51.4 °F /  10.8 °C 29.83in /  1010hPa Calm     74% 0.00in /  0mm 0.0 W/m2
01:24 59.5 °F /  15.3 °C 51.3 °F /  10.7 °C 29.83in /  1010hPa Calm   1.0mph /  1.6km/h 74% 0.00in /  0mm 0.0 W/m2
01:30 59.4 °F /  15.2 °C 51.4 °F /  10.8 °C 29.83in /  1010hPa Calm   2.0mph /  3.2km/h 75% 0.00in /  0mm 0.0 W/m2
01:37 59.2 °F /  15.1 °C 51.6 °F /  10.9 °C 29.83in /  1010hPa Calm     76% 0.00in /  0mm 0.0 W/m2
01:43 59.0 °F /  15 °C 51.8 °F /  11 °C 29.83in /  1010hPa East 0.9mph /  1.4km/h 1.0mph /  1.6km/h 77% 0.00in /  0mm 0.0 W/m2
01:49 58.8 °F /  14.9 °C 51.6 °F /  10.9 °C 29.82in /  1009.7hPa Calm   1.0mph /  1.6km/h 77% 0.00in /  0mm 0.0 W/m2
01:55 58.6 °F /  14.8 °C 51.8 °F /  11 °C 29.83in /  1010hPa East 2.0mph /  3.2km/h 4.0mph /  6.4km/h 78% 0.00in /  0mm 0.0 W/m2
02:01 58.6 °F /  14.8 °C 52.2 °F /  11.2 °C 29.82in /  1009.7hPa Calm   3.0mph /  4.8km/h 79% 0.00in /  0mm 0.0 W/m2
02:07 58.6 °F /  14.8 °C 52.2 °F /  11.2 °C 29.82in /  1009.7hPa Calm   3.0mph /  4.8km/h 79% 0.00in /  0mm 0.0 W/m2
02:14 58.5 °F /  14.7 °C 52.0 °F /  11.1 °C 29.81in /  1009.4hPa NE 0.9mph /  1.4km/h 3.0mph /  4.8km/h 79% 0.00in /  0mm 0.0 W/m2
02:19 58.5 °F /  14.7 °C 52.0 °F /  11.1 °C 29.81in /  1009.4hPa Calm   1.0mph /  1.6km/h 79% 0.00in /  0mm 0.0 W/m2
02:25 58.5 °F /  14.7 °C 52.0 °F /  11.1 °C 29.81in /  1009.4hPa Calm   3.0mph /  4.8km/h 79% 0.00in /  0mm 0.0 W/m2
02:32 58.5 °F /  14.7 °C 52.0 °F /  11.1 °C 29.81in /  1009.4hPa Calm   2.0mph /  3.2km/h 79% 0.00in /  0mm 0.0 W/m2
02:38 58.5 °F /  14.7 °C 51.6 °F /  10.9 °C 29.81in /  1009.4hPa Calm   3.0mph /  4.8km/h 78% 0.00in /  0mm 0.0 W/m2
02:44 58.8 °F /  14.9 °C 51.6 °F /  10.9 °C 29.81in /  1009.4hPa NE 2.0mph /  3.2km/h 2.0mph /  3.2km/h 77% 0.00in /  0mm 0.0 W/m2
02:50 59.2 °F /  15.1 °C 51.3 °F /  10.7 °C 29.82in /  1009.7hPa NE 2.0mph /  3.2km/h 5.0mph /  8km/h 75% 0.00in /  0mm 0.0 W/m2
02:56 59.5 °F /  15.3 °C 51.6 °F /  10.9 °C 29.81in /  1009.4hPa ENE 2.0mph /  3.2km/h 4.0mph /  6.4km/h 75% 0.00in /  0mm 0.0 W/m2
03:02 59.7 °F /  15.4 °C 51.8 °F /  11 °C 29.81in /  1009.4hPa Calm   2.0mph /  3.2km/h 75% 0.00in /  0mm 0.0 W/m2
03:09 59.7 °F /  15.4 °C 51.8 °F /  11 °C 29.81in /  1009.4hPa ENE 0.9mph /  1.4km/h 1.0mph /  1.6km/h 75% 0.00in /  0mm 0.0 W/m2
03:15 59.5 °F /  15.3 °C 52.0 °F /  11.1 °C 29.80in /  1009hPa Calm   2.0mph /  3.2km/h 76% 0.00in /  0mm 0.0 W/m2
03:21 59.4 °F /  15.2 °C 51.8 °F /  11 °C 29.80in /  1009hPa ESE 2.0mph /  3.2km/h 2.0mph /  3.2km/h 76% 0.00in /  0mm 0.0 W/m2
03:27 59.4 °F /  15.2 °C 51.8 °F /  11 °C 29.80in /  1009hPa Calm   1.0mph /  1.6km/h 76% 0.00in /  0mm 0.0 W/m2
03:33 59.4 °F /  15.2 °C 51.8 °F /  11 °C 29.80in /  1009hPa Calm   2.0mph /  3.2km/h 76% 0.00in /  0mm 0.0 W/m2
03:39 59.4 °F /  15.2 °C 51.4 °F /  10.8 °C 29.80in /  1009hPa Calm   5.0mph /  8km/h 75% 0.00in /  0mm 0.0 W/m2
03:45 59.5 °F /  15.3 °C 51.6 °F /  10.9 °C 29.80in /  1009hPa Calm   2.0mph /  3.2km/h 75% 0.00in /  0mm 0.0 W/m2
03:51 59.7 °F /  15.4 °C 51.8 °F /  11 °C 29.80in /  1009hPa East 0.9mph /  1.4km/h 3.0mph /  4.8km/h 75% 0.00in /  0mm 0.0 W/m2
03:58 59.9 °F /  15.5 °C 52.0 °F /  11.1 °C 29.80in /  1009hPa ESE 0.9mph /  1.4km/h 3.0mph /  4.8km/h 75% 0.00in /  0mm 0.0 W/m2
04:04 59.9 °F /  15.5 °C 52.0 °F /  11.1 °C 29.80in /  1009hPa Calm   2.0mph /  3.2km/h 75% 0.00in /  0mm 0.0 W/m2
04:10 59.9 °F /  15.5 °C 52.3 °F /  11.3 °C 29.80in /  1009hPa Calm   2.0mph /  3.2km/h 76% 0.00in /  0mm 0.0 W/m2
04:16 59.7 °F /  15.4 °C 51.8 °F /  11 °C 29.80in /  1009hPa Calm   2.0mph /  3.2km/h 75% 0.00in /  0mm 0.0 W/m2
04:22 59.9 °F /  15.5 °C 52.0 °F /  11.1 °C 29.80in /  1009hPa Calm   1.0mph /  1.6km/h 75% 0.00in /  0mm 0.0 W/m2
04:28 59.9 °F /  15.5 °C 52.3 °F /  11.3 °C 29.80in /  1009hPa ESE 0.9mph /  1.4km/h 2.0mph /  3.2km/h 76% 0.00in /  0mm 0.0 W/m2
04:34 60.1 °F /  15.6 °C 52.2 °F /  11.2 °C 29.79in /  1008.7hPa Calm   3.0mph /  4.8km/h 75% 0.00in /  0mm 0.0 W/m2
04:40 60.1 °F /  15.6 °C 52.2 °F /  11.2 °C 29.79in /  1008.7hPa Calm   2.0mph /  3.2km/h 75% 0.00in /  0mm 0.0 W/m2
04:47 60.3 °F /  15.7 °C 52.3 °F /  11.3 °C 29.79in /  1008.7hPa Calm   3.0mph /  4.8km/h 75% 0.00in /  0mm 0.0 W/m2
04:53 60.4 °F /  15.8 °C 52.2 °F /  11.2 °C 29.79in /  1008.7hPa Calm     74% 0.00in /  0mm 0.0 W/m2
04:59 60.4 °F /  15.8 °C 52.2 °F /  11.2 °C 29.80in /  1009hPa Calm   1.0mph /  1.6km/h 74% 0.00in /  0mm 0.0 W/m2
05:05 60.6 °F /  15.9 °C 52.3 °F /  11.3 °C 29.80in /  1009hPa Calm   1.0mph /  1.6km/h 74% 0.00in /  0mm 0.0 W/m2
05:11 60.6 °F /  15.9 °C 52.7 °F /  11.5 °C 29.80in /  1009hPa Calm   2.0mph /  3.2km/h 75% 0.00in /  0mm 0.0 W/m2
05:17 60.6 °F /  15.9 °C 52.3 °F /  11.3 °C 29.80in /  1009hPa Calm   2.0mph /  3.2km/h 74% 0.00in /  0mm 0.0 W/m2
05:23 60.6 °F /  15.9 °C 52.3 °F /  11.3 °C 29.80in /  1009hPa Calm   3.0mph /  4.8km/h 74% 0.00in /  0mm 0.0 W/m2
05:30 60.8 °F /  16 °C 52.5 °F /  11.4 °C 29.80in /  1009hPa Calm   1.0mph /  1.6km/h 74% 0.00in /  0mm 0.0 W/m2
05:36 60.6 °F /  15.9 °C 52.7 °F /  11.5 °C 29.80in /  1009hPa Calm   1.0mph /  1.6km/h 75% 0.00in /  0mm 0.0 W/m2
05:42 60.6 °F /  15.9 °C 52.7 °F /  11.5 °C 29.80in /  1009hPa Calm   2.0mph /  3.2km/h 75% 0.00in /  0mm 0.0 W/m2
05:48 60.6 °F /  15.9 °C 52.7 °F /  11.5 °C 29.80in /  1009hPa East 2.9mph /  4.7km/h 3.0mph /  4.8km/h 75% 0.00in /  0mm 0.0 W/m2
05:54 60.6 °F /  15.9 °C 52.7 °F /  11.5 °C 29.81in /  1009.4hPa Calm   2.0mph /  3.2km/h 75% 0.00in /  0mm 0.0 W/m2
06:00 60.6 °F /  15.9 °C 52.7 °F /  11.5 °C 29.82in /  1009.7hPa Calm     75% 0.00in /  0mm 0.0 W/m2
06:07 61.0 °F /  16.1 °C 52.7 °F /  11.5 °C 29.82in /  1009.7hPa Calm   1.0mph /  1.6km/h 74% 0.00in /  0mm 0.0 W/m2
06:13 61.0 °F /  16.1 °C 52.7 °F /  11.5 °C 29.82in /  1009.7hPa Calm     74% 0.00in /  0mm 0.0 W/m2
06:19 61.2 °F /  16.2 °C 53.2 °F /  11.8 °C 29.82in /  1009.7hPa Calm     75% 0.00in /  0mm 0.0 W/m2
06:26 61.2 °F /  16.2 °C 54.9 °F /  12.7 °C 29.82in /  1009.7hPa Calm     80% 0.00in /  0mm 9.0 W/m2
06:31 61.2 °F /  16.2 °C 55.2 °F /  12.9 °C 29.82in /  1009.7hPa Calm   1.0mph /  1.6km/h 81% 0.00in /  0mm 16.0 W/m2
06:37 61.2 °F /  16.2 °C 54.9 °F /  12.7 °C 29.82in /  1009.7hPa Calm     80% 0.00in /  0mm 21.0 W/m2
06:43 61.0 °F /  16.1 °C 54.7 °F /  12.6 °C 29.82in /  1009.7hPa Calm   2.0mph /  3.2km/h 80% 0.00in /  0mm 26.0 W/m2
06:49 61.0 °F /  16.1 °C 54.7 °F /  12.6 °C 29.83in /  1010hPa Calm   1.0mph /  1.6km/h 80% 0.00in /  0mm 37.0 W/m2
06:55 61.0 °F /  16.1 °C 55.0 °F /  12.8 °C 29.83in /  1010hPa Calm     81% 0.00in /  0mm 44.0 W/m2
07:02 61.2 °F /  16.2 °C 54.9 °F /  12.7 °C 29.82in /  1009.7hPa Calm     80% 0.00in /  0mm 40.0 W/m2
07:08 61.2 °F /  16.2 °C 54.9 °F /  12.7 °C 29.82in /  1009.7hPa ENE 0.9mph /  1.4km/h 1.0mph /  1.6km/h 80% 0.00in /  0mm 37.0 W/m2
07:14 61.3 °F /  16.3 °C 55.0 °F /  12.8 °C 29.83in /  1010hPa NE 2.0mph /  3.2km/h 2.0mph /  3.2km/h 80% 0.00in /  0mm 44.0 W/m2
07:21 61.5 °F /  16.4 °C 54.7 °F /  12.6 °C 29.82in /  1009.7hPa Calm   3.0mph /  4.8km/h 78% 0.00in /  0mm 54.0 W/m2
07:26 61.7 °F /  16.5 °C 54.9 °F /  12.7 °C 29.82in /  1009.7hPa NE 0.9mph /  1.4km/h 3.0mph /  4.8km/h 78% 0.00in /  0mm 33.0 W/m2
07:32 61.9 °F /  16.6 °C 54.3 °F /  12.4 °C 29.83in /  1010hPa NNE 2.0mph /  3.2km/h 3.0mph /  4.8km/h 76% 0.00in /  0mm 28.0 W/m2
07:38 62.1 °F /  16.7 °C 54.3 °F /  12.4 °C 29.83in /  1010hPa Calm   1.0mph /  1.6km/h 76% 0.00in /  0mm 49.0 W/m2
07:45 62.1 °F /  16.7 °C 54.3 °F /  12.4 °C 29.83in /  1010hPa North 4.0mph /  6.4km/h 4.0mph /  6.4km/h 76% 0.00in /  0mm 63.0 W/m2
07:53 62.2 °F /  16.8 °C 54.1 °F /  12.3 °C 29.83in /  1010hPa Calm   5.0mph /  8km/h 75% 0.00in /  0mm 63.0 W/m2
07:58 62.2 °F /  16.8 °C 54.1 °F /  12.3 °C 29.83in /  1010hPa Calm   2.0mph /  3.2km/h 75% 0.00in /  0mm 77.0 W/m2
08:05 62.6 °F /  17 °C 54.9 °F /  12.7 °C 29.83in /  1010hPa Calm   1.0mph /  1.6km/h 76% 0.00in /  0mm 105.0 W/m2
08:12 62.8 °F /  17.1 °C 54.7 °F /  12.6 °C 29.83in /  1010hPa Calm   6.0mph /  9.7km/h 75% 0.00in /  0mm 102.0 W/m2
08:17 63.1 °F /  17.3 °C 55.0 °F /  12.8 °C 29.83in /  1010hPa North 2.0mph /  3.2km/h 6.0mph /  9.7km/h 75% 0.00in /  0mm 98.0 W/m2
08:23 63.1 °F /  17.3 °C 55.4 °F /  13 °C 29.83in /  1010hPa East 2.9mph /  4.7km/h 4.0mph /  6.4km/h 76% 0.00in /  0mm 109.0 W/m2
08:30 63.3 °F /  17.4 °C 55.6 °F /  13.1 °C 29.83in /  1010hPa East 4.0mph /  6.4km/h 5.0mph /  8km/h 76% 0.00in /  0mm 135.0 W/m2
08:38 63.7 °F /  17.6 °C 55.9 °F /  13.3 °C 29.84in /  1010.4hPa NNE 2.9mph /  4.7km/h 6.0mph /  9.7km/h 76% 0.00in /  0mm 178.0 W/m2
08:44 63.9 °F /  17.7 °C 56.5 °F /  13.6 °C 29.83in /  1010hPa East 0.9mph /  1.4km/h 6.0mph /  9.7km/h 77% 0.00in /  0mm 220.0 W/m2
08:50 64.2 °F /  17.9 °C 56.8 °F /  13.8 °C 29.83in /  1010hPa NNE 2.9mph /  4.7km/h 5.0mph /  8km/h 77% 0.00in /  0mm 171.0 W/m2
08:57 64.6 °F /  18.1 °C 56.8 °F /  13.8 °C 29.83in /  1010hPa East 2.9mph /  4.7km/h 7.0mph /  11.3km/h 76% 0.00in /  0mm 399.0 W/m2
09:02 65.7 °F /  18.7 °C 57.6 °F /  14.2 °C 29.83in /  1010hPa Calm   5.0mph /  8km/h 75% 0.00in /  0mm 684.0 W/m2
09:09 67.3 °F /  19.6 °C 57.9 °F /  14.4 °C 29.83in /  1010hPa East 4.9mph /  7.9km/h 6.0mph /  9.7km/h 72% 0.00in /  0mm 684.0 W/m2
09:14 68.7 °F /  20.4 °C 58.5 °F /  14.7 °C 29.83in /  1010hPa East 8.1mph /  13km/h 8.1mph /  13km/h 70% 0.00in /  0mm 705.0 W/m2
09:22 69.8 °F /  21 °C 58.3 °F /  14.6 °C 29.83in /  1010hPa ENE 2.9mph /  4.7km/h 8.0mph /  12.9km/h 67% 0.00in /  0mm 798.0 W/m2
09:27 70.2 °F /  21.2 °C 58.3 °F /  14.6 °C 29.83in /  1010hPa NE 4.0mph /  6.4km/h 7.0mph /  11.3km/h 66% 0.00in /  0mm 752.0 W/m2
09:33 71.1 °F /  21.7 °C 59.2 °F /  15.1 °C 29.83in /  1010hPa NNW 4.9mph /  7.9km/h 10.0mph /  16.1km/h 66% 0.00in /  0mm 870.0 W/m2
09:39 72.3 °F /  22.4 °C 59.5 °F /  15.3 °C 29.83in /  1010hPa NNW 0.9mph /  1.4km/h 6.0mph /  9.7km/h 64% 0.00in /  0mm 889.0 W/m2
09:45 73.2 °F /  22.9 °C 59.0 °F /  15 °C 29.83in /  1010hPa NNW 2.9mph /  4.7km/h 8.0mph /  12.9km/h 61% 0.00in /  0mm 960.0 W/m2
09:53 73.8 °F /  23.2 °C 59.5 °F /  15.3 °C 29.83in /  1010hPa ENE 4.0mph /  6.4km/h 8.0mph /  12.9km/h 61% 0.00in /  0mm 951.0 W/m2
10:00 73.9 °F /  23.3 °C 59.2 °F /  15.1 °C 29.82in /  1009.7hPa NNE 10.1mph /  16.3km/h 11.0mph /  17.7km/h 60% 0.00in /  0mm 1067.0 W/m2
10:07 73.8 °F /  23.2 °C 59.0 °F /  15 °C 29.82in /  1009.7hPa ENE 8.1mph /  13km/h 8.1mph /  13km/h 60% 0.00in /  0mm 427.0 W/m2
10:13 74.1 °F /  23.4 °C 58.8 °F /  14.9 °C 29.82in /  1009.7hPa NNE 8.1mph /  13km/h 10.0mph /  16.1km/h 59% 0.00in /  0mm 870.0 W/m2
10:18 74.7 °F /  23.7 °C 59.4 °F /  15.2 °C 29.82in /  1009.7hPa North 4.0mph /  6.4km/h 12.0mph /  19.3km/h 59% 0.00in /  0mm 870.0 W/m2
10:26 75.2 °F /  24 °C 59.4 °F /  15.2 °C 29.81in /  1009.4hPa NE 2.9mph /  4.7km/h 9.0mph /  14.5km/h 58% 0.00in /  0mm 812.0 W/m2
10:31 75.0 °F /  23.9 °C 59.2 °F /  15.1 °C 29.81in /  1009.4hPa NNW 6.9mph /  11.1km/h 11.0mph /  17.7km/h 58% 0.00in /  0mm 332.0 W/m2
10:39 74.7 °F /  23.7 °C 58.8 °F /  14.9 °C 29.80in /  1009hPa NNW 4.0mph /  6.4km/h 9.0mph /  14.5km/h 58% 0.00in /  0mm 227.0 W/m2
10:44 73.8 °F /  23.2 °C 58.5 °F /  14.7 °C 29.80in /  1009hPa NE 8.1mph /  13km/h 12.0mph /  19.3km/h 59% 0.00in /  0mm 93.0 W/m2
10:51 70.9 °F /  21.6 °C 56.3 °F /  13.5 °C 29.81in /  1009.4hPa North 17.0mph /  27.4km/h 18.0mph /  29km/h 60% 0.00in /  0mm 83.0 W/m2
10:59 68.2 °F /  20.1 °C 55.6 °F /  13.1 °C 29.82in /  1009.7hPa NNW 4.0mph /  6.4km/h 13.0mph /  20.9km/h 64% 0.00in /  0mm 63.0 W/m2
11:05 66.7 °F /  19.3 °C 55.0 °F /  12.8 °C 29.82in /  1009.7hPa NNE 6.0mph /  9.7km/h 10.0mph /  16.1km/h 66% 0.00in /  0mm 69.0 W/m2
11:11 65.5 °F /  18.6 °C 57.0 °F /  13.9 °C 29.82in /  1009.7hPa NE 2.0mph /  3.2km/h 8.0mph /  12.9km/h 74% 0.00in /  0mm 74.0 W/m2
11:17 64.2 °F /  17.9 °C 56.5 °F /  13.6 °C 29.81in /  1009.4hPa NNE 2.0mph /  3.2km/h 7.0mph /  11.3km/h 76% 0.00in /  0mm 118.0 W/m2
11:23 63.1 °F /  17.3 °C 55.4 °F /  13 °C 29.80in /  1009hPa NNE 2.9mph /  4.7km/h 11.0mph /  17.7km/h 76% 0.00in /  0mm 309.0 W/m2
11:29 63.1 °F /  17.3 °C 55.4 °F /  13 °C 29.81in /  1009.4hPa NNE 2.0mph /  3.2km/h 7.0mph /  11.3km/h 76% 0.00in /  0mm 220.0 W/m2
11:35 63.7 °F /  17.6 °C 55.6 °F /  13.1 °C 29.81in /  1009.4hPa East 0.9mph /  1.4km/h 8.0mph /  12.9km/h 75% 0.00in /  0mm 299.0 W/m2
11:41 64.2 °F /  17.9 °C 55.4 °F /  13 °C 29.80in /  1009hPa East 2.9mph /  4.7km/h 7.0mph /  11.3km/h 73% 0.00in /  0mm 207.0 W/m2
11:47 64.9 °F /  18.3 °C 55.8 °F /  13.2 °C 29.80in /  1009hPa NE 2.9mph /  4.7km/h 7.0mph /  11.3km/h 72% 0.00in /  0mm 134.0 W/m2
11:53 64.9 °F /  18.3 °C 55.4 °F /  13 °C 29.80in /  1009hPa East 6.9mph /  11.1km/h 8.0mph /  12.9km/h 71% 0.00in /  0mm 144.0 W/m2
11:59 64.9 °F /  18.3 °C 55.4 °F /  13 °C 29.80in /  1009hPa ENE 4.9mph /  7.9km/h 5.0mph /  8km/h 71% 0.00in /  0mm 98.0 W/m2
12:06 64.8 °F /  18.2 °C 54.7 °F /  12.6 °C 29.81in /  1009.4hPa NNE 0.9mph /  1.4km/h 3.0mph /  4.8km/h 70% 0.00in /  0mm 65.0 W/m2
12:12 64.8 °F /  18.2 °C 55.9 °F /  13.3 °C 29.80in /  1009hPa NNE 2.0mph /  3.2km/h 5.0mph /  8km/h 73% 0.00in /  0mm 51.0 W/m2
12:18 64.2 °F /  17.9 °C 55.8 °F /  13.2 °C 29.81in /  1009.4hPa NW 2.0mph /  3.2km/h 5.0mph /  8km/h 74% 0.00in /  0mm 33.0 W/m2
12:24 63.7 °F /  17.6 °C 56.3 °F /  13.5 °C 29.82in /  1009.7hPa North 6.9mph /  11.1km/h 10.0mph /  16.1km/h 77% 0.00in /  0mm 14.0 W/m2
12:30 62.8 °F /  17.1 °C 56.8 °F /  13.8 °C 29.83in /  1010hPa WNW 2.0mph /  3.2km/h 7.0mph /  11.3km/h 81% 0.06in /  1.52mm 7.0 W/m2
12:36 61.3 °F /  16.3 °C 56.8 °F /  13.8 °C 29.83in /  1010hPa Calm   3.0mph /  4.8km/h 85% 0.15in /  3.81mm 7.0 W/m2
12:42 60.4 °F /  15.8 °C 56.5 °F /  13.6 °C 29.83in /  1010hPa Calm   5.0mph /  8km/h 87% 0.19in /  4.83mm 11.0 W/m2
12:48 60.1 °F /  15.6 °C 56.8 °F /  13.8 °C 29.84in /  1010.4hPa Calm   2.0mph /  3.2km/h 89% 0.24in /  6.1mm 14.0 W/m2
12:55 59.5 °F /  15.3 °C 56.7 °F /  13.7 °C 29.81in /  1009.4hPa SW 0.9mph /  1.4km/h 3.0mph /  4.8km/h 90% 0.36in /  9.14mm 37.0 W/m2
13:01 59.4 °F /  15.2 °C 56.7 °F /  13.7 °C 29.81in /  1009.4hPa Calm     91% 0.37in /  9.4mm 104.0 W/m2
13:08 59.5 °F /  15.3 °C 57.2 °F /  14 °C 29.81in /  1009.4hPa Calm   1.0mph /  1.6km/h 92% 0.38in /  9.65mm 156.0 W/m2
13:14 59.9 °F /  15.5 °C 57.9 °F /  14.4 °C 29.80in /  1009hPa Calm   3.0mph /  4.8km/h 93% 0.40in /  10.16mm 213.0 W/m2
13:19 60.1 °F /  15.6 °C 58.1 °F /  14.5 °C 29.79in /  1008.7hPa Calm   3.0mph /  4.8km/h 93% 0.41in /  10.41mm 336.0 W/m2
13:25 60.6 °F /  15.9 °C 58.8 °F /  14.9 °C 29.78in /  1008.4hPa SE 2.0mph /  3.2km/h 6.0mph /  9.7km/h 94% 0.41in /  10.41mm 438.0 W/m2
13:31 61.2 °F /  16.2 °C 59.4 °F /  15.2 °C 29.77in /  1008hPa ESE 4.9mph /  7.9km/h 7.0mph /  11.3km/h 94% 0.34in /  8.64mm 431.0 W/m2
13:37 61.7 °F /  16.5 °C 59.9 °F /  15.5 °C 29.76in /  1007.7hPa SSE 6.0mph /  9.7km/h 6.0mph /  9.7km/h 94% 0.24in /  6.1mm 830.0 W/m2
13:43 61.9 °F /  16.6 °C 59.2 °F /  15.1 °C 29.75in /  1007.3hPa ESE 0.9mph /  1.4km/h 5.0mph /  8km/h 91% 0.21in /  5.33mm 415.0 W/m2
13:49 62.2 °F /  16.8 °C 59.5 °F /  15.3 °C 29.75in /  1007.3hPa ESE 0.9mph /  1.4km/h 1.0mph /  1.6km/h 91% 0.13in /  3.3mm 418.0 W/m2
13:56 62.4 °F /  16.9 °C 59.4 °F /  15.2 °C 29.75in /  1007.3hPa Calm   3.0mph /  4.8km/h 90% 0.05in /  1.27mm 318.0 W/m2
14:02 62.8 °F /  17.1 °C 59.5 °F /  15.3 °C 29.75in /  1007.3hPa North 0.9mph /  1.4km/h 3.0mph /  4.8km/h 89% 0.04in /  1.02mm 237.0 W/m2
14:08 63.1 °F /  17.3 °C 59.9 °F /  15.5 °C 29.76in /  1007.7hPa Calm   2.0mph /  3.2km/h 89% 0.02in /  0.51mm 538.0 W/m2
14:14 63.7 °F /  17.6 °C 60.1 °F /  15.6 °C 29.76in /  1007.7hPa Calm   2.0mph /  3.2km/h 88% 0.01in /  0.25mm 531.0 W/m2
14:20 64.2 °F /  17.9 °C 60.3 °F /  15.7 °C 29.75in /  1007.3hPa Calm   1.0mph /  1.6km/h 87% 0.00in /  0mm 833.0 W/m2
14:26 64.8 °F /  18.2 °C 59.2 °F /  15.1 °C 29.75in /  1007.3hPa Calm   1.0mph /  1.6km/h 82% 0.00in /  0mm 221.0 W/m2
14:32 64.9 °F /  18.3 °C 59.0 °F /  15 °C 29.74in /  1007hPa Calm   1.0mph /  1.6km/h 81% 0.00in /  0mm 155.0 W/m2
14:38 65.1 °F /  18.4 °C 59.9 °F /  15.5 °C 29.74in /  1007hPa ENE 0.9mph /  1.4km/h 4.0mph /  6.4km/h 83% 0.00in /  0mm 199.0 W/m2
14:49 65.1 °F /  18.4 °C 59.5 °F /  15.3 °C 29.74in /  1007hPa ESE 0.9mph /  1.4km/h 4.0mph /  6.4km/h 82% 0.00in /  0mm 204.0 W/m2
14:55 65.1 °F /  18.4 °C 59.9 °F /  15.5 °C 29.74in /  1007hPa Calm   1.0mph /  1.6km/h 83% 0.00in /  0mm 283.0 W/m2
15:01 65.5 °F /  18.6 °C 59.9 °F /  15.5 °C 29.74in /  1007hPa ENE 2.9mph /  4.7km/h 4.0mph /  6.4km/h 82% 0.00in /  0mm 218.0 W/m2
15:07 65.5 °F /  18.6 °C 59.5 °F /  15.3 °C 29.75in /  1007.3hPa NE 2.0mph /  3.2km/h 3.0mph /  4.8km/h 81% 0.00in /  0mm 192.0 W/m2
15:13 65.5 °F /  18.6 °C 59.2 °F /  15.1 °C 29.76in /  1007.7hPa North 2.0mph /  3.2km/h 3.0mph /  4.8km/h 80% 0.00in /  0mm 156.0 W/m2
15:19 65.7 °F /  18.7 °C 59.4 °F /  15.2 °C 29.76in /  1007.7hPa NNE 2.9mph /  4.7km/h 5.0mph /  8km/h 80% 0.00in /  0mm 91.0 W/m2
15:25 65.5 °F /  18.6 °C 58.5 °F /  14.7 °C 29.76in /  1007.7hPa North 2.9mph /  4.7km/h 6.0mph /  9.7km/h 78% 0.00in /  0mm 81.0 W/m2
15:32 65.1 °F /  18.4 °C 57.7 °F /  14.3 °C 29.76in /  1007.7hPa NE 2.0mph /  3.2km/h 3.0mph /  4.8km/h 77% 0.00in /  0mm 53.0 W/m2
15:38 65.1 °F /  18.4 °C 58.8 °F /  14.9 °C 29.76in /  1007.7hPa NNE 2.9mph /  4.7km/h 6.0mph /  9.7km/h 80% 0.00in /  0mm 39.0 W/m2
15:44 64.9 °F /  18.3 °C 59.0 °F /  15 °C 29.75in /  1007.3hPa Calm   4.0mph /  6.4km/h 81% 0.00in /  0mm 37.0 W/m2
15:50 64.8 °F /  18.2 °C 58.5 °F /  14.7 °C 29.76in /  1007.7hPa NE 2.0mph /  3.2km/h 5.0mph /  8km/h 80% 0.00in /  0mm 28.0 W/m2
15:56 64.4 °F /  18 °C 58.5 °F /  14.7 °C 29.76in /  1007.7hPa ENE 4.0mph /  6.4km/h 7.0mph /  11.3km/h 81% 0.00in /  0mm 25.0 W/m2
16:02 64.0 °F /  17.8 °C 58.8 °F /  14.9 °C 29.75in /  1007.3hPa North 2.9mph /  4.7km/h 6.0mph /  9.7km/h 83% 0.00in /  0mm 26.0 W/m2
16:08 63.7 °F /  17.6 °C 58.8 °F /  14.9 °C 29.77in /  1008hPa North 0.9mph /  1.4km/h 6.0mph /  9.7km/h 84% 0.01in /  0.25mm 14.0 W/m2
16:14 63.1 °F /  17.3 °C 58.8 °F /  14.9 °C 29.75in /  1007.3hPa NE 6.9mph /  11.1km/h 11.0mph /  17.7km/h 86% 0.05in /  1.27mm 19.0 W/m2
16:21 61.9 °F /  16.6 °C 56.7 °F /  13.7 °C 29.75in /  1007.3hPa North 4.9mph /  7.9km/h 9.0mph /  14.5km/h 83% 0.09in /  2.29mm 77.0 W/m2
16:27 61.2 °F /  16.2 °C 57.2 °F /  14 °C 29.74in /  1007hPa ENE 4.9mph /  7.9km/h 10.0mph /  16.1km/h 87% 0.10in /  2.54mm 118.0 W/m2
16:33 61.0 °F /  16.1 °C 57.0 °F /  13.9 °C 29.74in /  1007hPa Calm   6.0mph /  9.7km/h 87% 0.10in /  2.54mm 53.0 W/m2
16:39 60.4 °F /  15.8 °C 56.5 °F /  13.6 °C 29.74in /  1007hPa NE 2.9mph /  4.7km/h 9.0mph /  14.5km/h 87% 0.10in /  2.54mm 47.0 W/m2
16:45 60.4 °F /  15.8 °C 56.8 °F /  13.8 °C 29.75in /  1007.3hPa East 0.9mph /  1.4km/h 7.0mph /  11.3km/h 88% 0.11in /  2.79mm 49.0 W/m2
16:51 60.3 °F /  15.7 °C 57.0 °F /  13.9 °C 29.74in /  1007hPa Calm   4.0mph /  6.4km/h 89% 0.11in /  2.79mm 42.0 W/m2
16:57 60.4 °F /  15.8 °C 57.6 °F /  14.2 °C 29.75in /  1007.3hPa East 6.0mph /  9.7km/h 6.0mph /  9.7km/h 90% 0.11in /  2.79mm 32.0 W/m2
17:03 60.4 °F /  15.8 °C 57.6 °F /  14.2 °C 29.76in /  1007.7hPa Calm   6.0mph /  9.7km/h 90% 0.10in /  2.54mm 18.0 W/m2
17:10 60.3 °F /  15.7 °C 57.4 °F /  14.1 °C 29.76in /  1007.7hPa East 4.0mph /  6.4km/h 4.0mph /  6.4km/h 90% 0.09in /  2.29mm 12.0 W/m2
17:16 60.3 °F /  15.7 °C 57.4 °F /  14.1 °C 29.77in /  1008hPa NE 0.9mph /  1.4km/h 5.0mph /  8km/h 90% 0.05in /  1.27mm 12.0 W/m2
17:22 60.1 °F /  15.6 °C 57.2 °F /  14 °C 29.77in /  1008hPa Calm   4.0mph /  6.4km/h 90% 0.01in /  0.25mm 5.0 W/m2
17:28 60.1 °F /  15.6 °C 57.2 °F /  14 °C 29.77in /  1008hPa Calm   4.0mph /  6.4km/h 90% 0.01in /  0.25mm 0.0 W/m2
17:36 59.9 °F /  15.5 °C 56.7 °F /  13.7 °C 29.78in /  1008.4hPa Calm   5.0mph /  8km/h 89% 0.01in /  0.25mm 0.0 W/m2
17:42 59.7 °F /  15.4 °C 56.5 °F /  13.6 °C 29.78in /  1008.4hPa Calm   5.0mph /  8km/h 89% 0.01in /  0.25mm 0.0 W/m2
17:48 59.7 °F /  15.4 °C 56.5 °F /  13.6 °C 29.78in /  1008.4hPa East 2.9mph /  4.7km/h 5.0mph /  8km/h 89% 0.00in /  0mm 0.0 W/m2
17:57 59.7 °F /  15.4 °C 56.8 °F /  13.8 °C 29.79in /  1008.7hPa Calm   3.0mph /  4.8km/h 90% 0.00in /  0mm 0.0 W/m2
18:02 59.7 °F /  15.4 °C 56.8 °F /  13.8 °C 29.80in /  1009hPa Calm   3.0mph /  4.8km/h 90% 0.00in /  0mm 0.0 W/m2
18:08 59.7 °F /  15.4 °C 57.0 °F /  13.9 °C 29.81in /  1009.4hPa Calm   1.0mph /  1.6km/h 91% 0.00in /  0mm 0.0 W/m2
18:14 59.7 °F /  15.4 °C 56.8 °F /  13.8 °C 29.82in /  1009.7hPa Calm   1.0mph /  1.6km/h 90% 0.00in /  0mm 0.0 W/m2
18:21 59.7 °F /  15.4 °C 57.0 °F /  13.9 °C 29.83in /  1010hPa Calm   1.0mph /  1.6km/h 91% 0.00in /  0mm 0.0 W/m2
18:27 59.7 °F /  15.4 °C 57.0 °F /  13.9 °C 29.83in /  1010hPa NW 4.0mph /  6.4km/h 5.0mph /  8km/h 91% 0.00in /  0mm 0.0 W/m2
18:33 59.7 °F /  15.4 °C 57.4 °F /  14.1 °C 29.82in /  1009.7hPa NE 6.9mph /  11.1km/h 9.0mph /  14.5km/h 92% 0.01in /  0.25mm 0.0 W/m2
18:39 59.5 °F /  15.3 °C 56.8 °F /  13.8 °C 29.83in /  1010hPa NNE 4.0mph /  6.4km/h 9.0mph /  14.5km/h 91% 0.02in /  0.51mm 0.0 W/m2
18:45 59.4 °F /  15.2 °C 56.7 °F /  13.7 °C 29.82in /  1009.7hPa Calm   4.0mph /  6.4km/h 91% 0.02in /  0.51mm 0.0 W/m2
18:51 59.2 °F /  15.1 °C 56.5 °F /  13.6 °C 29.83in /  1010hPa Calm   2.0mph /  3.2km/h 91% 0.02in /  0.51mm 0.0 W/m2
18:58 59.0 °F /  15 °C 56.1 °F /  13.4 °C 29.84in /  1010.4hPa WNW 0.9mph /  1.4km/h 2.0mph /  3.2km/h 90% 0.02in /  0.51mm 0.0 W/m2
19:04 58.8 °F /  14.9 °C 55.9 °F /  13.3 °C 29.84in /  1010.4hPa NE 2.0mph /  3.2km/h 4.0mph /  6.4km/h 90% 0.03in /  0.76mm 0.0 W/m2
19:10 58.3 °F /  14.6 °C 55.0 °F /  12.8 °C 29.84in /  1010.4hPa NE 4.9mph /  7.9km/h 7.0mph /  11.3km/h 89% 0.06in /  1.52mm 0.0 W/m2
19:16 57.7 °F /  14.3 °C 54.5 °F /  12.5 °C 29.82in /  1009.7hPa East 2.0mph /  3.2km/h 7.0mph /  11.3km/h 89% 0.07in /  1.78mm 0.0 W/m2
19:22 57.4 °F /  14.1 °C 54.1 °F /  12.3 °C 29.81in /  1009.4hPa East 8.1mph /  13km/h 9.0mph /  14.5km/h 89% 0.08in /  2.03mm 0.0 W/m2
19:28 57.0 °F /  13.9 °C 54.1 °F /  12.3 °C 29.83in /  1010hPa SSE 0.9mph /  1.4km/h 6.0mph /  9.7km/h 90% 0.09in /  2.29mm 0.0 W/m2
19:34 56.8 °F /  13.8 °C 54.0 °F /  12.2 °C 29.83in /  1010hPa ESE 2.0mph /  3.2km/h 4.0mph /  6.4km/h 90% 0.08in /  2.03mm 0.0 W/m2
19:41 56.8 °F /  13.8 °C 54.0 °F /  12.2 °C 29.83in /  1010hPa Calm   1.0mph /  1.6km/h 90% 0.07in /  1.78mm 0.0 W/m2
19:47 56.7 °F /  13.7 °C 54.1 °F /  12.3 °C 29.83in /  1010hPa Calm   2.0mph /  3.2km/h 91% 0.07in /  1.78mm 0.0 W/m2
19:53 56.7 °F /  13.7 °C 54.1 °F /  12.3 °C 29.83in /  1010hPa Calm   1.0mph /  1.6km/h 91% 0.06in /  1.52mm 0.0 W/m2
19:59 56.7 °F /  13.7 °C 54.3 °F /  12.4 °C 29.84in /  1010.4hPa Calm     92% 0.06in /  1.52mm 0.0 W/m2
20:07 56.7 °F /  13.7 °C 54.3 °F /  12.4 °C 29.84in /  1010.4hPa Calm     92% 0.03in /  0.76mm 0.0 W/m2
20:13 56.7 °F /  13.7 °C 54.7 °F /  12.6 °C 29.85in /  1010.7hPa Calm     93% 0.02in /  0.51mm 0.0 W/m2
20:20 56.7 °F /  13.7 °C 54.7 °F /  12.6 °C 29.85in /  1010.7hPa Calm     93% 0.01in /  0.25mm 0.0 W/m2
20:25 56.7 °F /  13.7 °C 54.7 °F /  12.6 °C 29.84in /  1010.4hPa Calm   2.0mph /  3.2km/h 93% 0.00in /  0mm 0.0 W/m2
20:31 56.7 °F /  13.7 °C 54.7 °F /  12.6 °C 29.85in /  1010.7hPa Calm   1.0mph /  1.6km/h 93% 0.00in /  0mm 0.0 W/m2
20:37 56.5 °F /  13.6 °C 54.1 °F /  12.3 °C 29.85in /  1010.7hPa Calm     92% 0.00in /  0mm 0.0 W/m2
20:44 56.5 °F /  13.6 °C 54.5 °F /  12.5 °C 29.85in /  1010.7hPa Calm   1.0mph /  1.6km/h 93% 0.00in /  0mm 0.0 W/m2
20:50 56.1 °F /  13.4 °C 54.1 °F /  12.3 °C 29.85in /  1010.7hPa Calm   1.0mph /  1.6km/h 93% 0.00in /  0mm 0.0 W/m2
20:56 56.1 °F /  13.4 °C 53.8 °F /  12.1 °C 29.85in /  1010.7hPa Calm     92% 0.00in /  0mm 0.0 W/m2
21:02 55.8 °F /  13.2 °C 53.4 °F /  11.9 °C 29.85in /  1010.7hPa Calm     92% 0.00in /  0mm 0.0 W/m2
21:08 55.8 °F /  13.2 °C 53.8 °F /  12.1 °C 29.85in /  1010.7hPa Calm     93% 0.00in /  0mm 0.0 W/m2
21:14 55.6 °F /  13.1 °C 53.6 °F /  12 °C 29.85in /  1010.7hPa Calm     93% 0.00in /  0mm 0.0 W/m2
21:20 55.4 °F /  13 °C 53.4 °F /  11.9 °C 29.86in /  1011.1hPa NE 0.9mph /  1.4km/h 2.0mph /  3.2km/h 93% 0.00in /  0mm 0.0 W/m2
21:26 55.2 °F /  12.9 °C 53.2 °F /  11.8 °C 29.86in /  1011.1hPa Calm     93% 0.00in /  0mm 0.0 W/m2
21:32 55.0 °F /  12.8 °C 53.1 °F /  11.7 °C 29.86in /  1011.1hPa Calm     93% 0.00in /  0mm 0.0 W/m2
21:38 55.0 °F /  12.8 °C 53.1 °F /  11.7 °C 29.86in /  1011.1hPa Calm     93% 0.00in /  0mm 0.0 W/m2
21:44 54.9 °F /  12.7 °C 52.9 °F /  11.6 °C 29.86in /  1011.1hPa SE 0.9mph /  1.4km/h 2.0mph /  3.2km/h 93% 0.00in /  0mm 0.0 W/m2
21:50 54.9 °F /  12.7 °C 52.9 °F /  11.6 °C 29.86in /  1011.1hPa SE 0.9mph /  1.4km/h 3.0mph /  4.8km/h 93% 0.00in /  0mm 0.0 W/m2
21:56 54.9 °F /  12.7 °C 52.9 °F /  11.6 °C 29.86in /  1011.1hPa ENE 0.9mph /  1.4km/h 2.0mph /  3.2km/h 93% 0.00in /  0mm 0.0 W/m2
22:02 54.7 °F /  12.6 °C 52.7 °F /  11.5 °C 29.86in /  1011.1hPa Calm   1.0mph /  1.6km/h 93% 0.00in /  0mm 0.0 W/m2
22:08 54.7 °F /  12.6 °C 52.7 °F /  11.5 °C 29.86in /  1011.1hPa Calm     93% 0.00in /  0mm 0.0 W/m2
22:14 54.5 °F /  12.5 °C 52.5 °F /  11.4 °C 29.86in /  1011.1hPa Calm     93% 0.00in /  0mm 0.0 W/m2
22:20 54.3 °F /  12.4 °C 52.3 °F /  11.3 °C 29.86in /  1011.1hPa Calm     93% 0.00in /  0mm 0.0 W/m2
22:26 54.1 °F /  12.3 °C 52.2 °F /  11.2 °C 29.86in /  1011.1hPa Calm     93% 0.00in /  0mm 0.0 W/m2
22:32 54.1 °F /  12.3 °C 52.2 °F /  11.2 °C 29.86in /  1011.1hPa Calm     93% 0.00in /  0mm 0.0 W/m2
22:38 54.0 °F /  12.2 °C 52.0 °F /  11.1 °C 29.86in /  1011.1hPa Calm     93% 0.00in /  0mm 0.0 W/m2
22:44 54.0 °F /  12.2 °C 52.3 °F /  11.3 °C 29.88in /  1011.7hPa NNE 2.0mph /  3.2km/h 2.0mph /  3.2km/h 94% 0.00in /  0mm 0.0 W/m2
22:50 53.8 °F /  12.1 °C 52.2 °F /  11.2 °C 29.88in /  1011.7hPa NNE 0.9mph /  1.4km/h 2.0mph /  3.2km/h 94% 0.00in /  0mm 0.0 W/m2
22:56 53.8 °F /  12.1 °C 51.8 °F /  11 °C 29.88in /  1011.7hPa Calm     93% 0.00in /  0mm 0.0 W/m2
23:02 53.6 °F /  12 °C 51.6 °F /  10.9 °C 29.88in /  1011.7hPa Calm     93% 0.00in /  0mm 0.0 W/m2
23:08 53.4 °F /  11.9 °C 51.8 °F /  11 °C 29.88in /  1011.7hPa Calm   1.0mph /  1.6km/h 94% 0.00in /  0mm 0.0 W/m2
23:14 53.4 °F /  11.9 °C 51.8 °F /  11 °C 29.88in /  1011.7hPa ENE 0.9mph /  1.4km/h 3.0mph /  4.8km/h 94% 0.00in /  0mm 0.0 W/m2
23:21 53.2 °F /  11.8 °C 51.6 °F /  10.9 °C 29.88in /  1011.7hPa Calm   2.0mph /  3.2km/h 94% 0.00in /  0mm 0.0 W/m2
23:27 53.1 °F /  11.7 °C 51.4 °F /  10.8 °C 29.88in /  1011.7hPa ESE 2.0mph /  3.2km/h 4.0mph /  6.4km/h 94% 0.00in /  0mm 0.0 W/m2
23:33 53.1 °F /  11.7 °C 51.4 °F /  10.8 °C 29.88in /  1011.7hPa Calm   2.0mph /  3.2km/h 94% 0.00in /  0mm 0.0 W/m2
23:39 53.1 °F /  11.7 °C 51.1 °F /  10.6 °C 29.88in /  1011.7hPa Calm   2.0mph /  3.2km/h 93% 0.00in /  0mm 0.0 W/m2
23:45 52.9 °F /  11.6 °C 50.9 °F /  10.5 °C 29.88in /  1011.7hPa Calm     93% 0.00in /  0mm 0.0 W/m2
23:51 52.7 °F /  11.5 °C 51.1 °F /  10.6 °C 29.88in /  1011.7hPa Calm     94% 0.00in /  0mm 0.0 W/m2
23:57 52.5 °F /  11.4 °C 50.9 °F /  10.5 °C 29.88in /  1011.7hPa Calm     94% 0.00in /  0mm 0.0 W/m2
Olympia, Windhoek, Namibia
Compliments of Weather Underground - 3 mb